sensor_id;sensor_type;location;lat;lon;timestamp;pressure;altitude;pressure_sealevel;temperature;humidity
20013;BME280;10167;42.852;23.042;2022-07-25T00:02:14;94943.44;;;24.89;100.00
20013;BME280;10167;42.852;23.042;2022-07-25T00:04:42;94946.94;;;24.90;100.00
20013;BME280;10167;42.852;23.042;2022-07-25T00:07:10;94946.00;;;24.86;100.00
20013;BME280;10167;42.852;23.042;2022-07-25T00:09:37;94940.31;;;24.79;100.00
20013;BME280;10167;42.852;23.042;2022-07-25T00:12:05;94934.28;;;24.65;100.00
20013;BME280;10167;42.852;23.042;2022-07-25T00:14:33;94939.56;;;24.61;100.00
20013;BME280;10167;42.852;23.042;2022-07-25T00:17:01;94945.44;;;24.63;100.00
20013;BME280;10167;42.852;23.042;2022-07-25T00:24:33;94936.84;;;24.61;100.00
20013;BME280;10167;42.852;23.042;2022-07-25T00:27:00;94939.44;;;24.57;100.00
20013;BME280;10167;42.852;23.042;2022-07-25T00:29:28;94935.47;;;24.46;100.00
20013;BME280;10167;42.852;23.042;2022-07-25T00:31:56;94933.88;;;24.45;100.00
20013;BME280;10167;42.852;23.042;2022-07-25T00:34:23;94933.09;;;24.45;100.00
20013;BME280;10167;42.852;23.042;2022-07-25T00:36:51;94925.66;;;24.33;100.00
20013;BME280;10167;42.852;23.042;2022-07-25T00:39:18;94922.63;;;24.35;100.00
20013;BME280;10167;42.852;23.042;2022-07-25T00:44:34;94928.94;;;24.39;100.00
20013;BME280;10167;42.852;23.042;2022-07-25T00:47:02;94938.22;;;24.38;100.00
20013;BME280;10167;42.852;23.042;2022-07-25T00:49:30;94932.81;;;24.38;100.00
20013;BME280;10167;42.852;23.042;2022-07-25T00:51:57;94925.59;;;24.42;100.00
20013;BME280;10167;42.852;23.042;2022-07-25T00:54:25;94924.38;;;24.31;100.00
20013;BME280;10167;42.852;23.042;2022-07-25T00:56:52;94924.84;;;24.33;100.00
20013;BME280;10167;42.852;23.042;2022-07-25T00:59:20;94925.84;;;24.02;100.00
20013;BME280;10167;42.852;23.042;2022-07-25T01:04:42;94917.22;;;23.48;100.00
20013;BME280;10167;42.852;23.042;2022-07-25T01:07:09;94921.16;;;23.25;100.00
20013;BME280;10167;42.852;23.042;2022-07-25T01:09:37;94909.56;;;23.16;100.00
20013;BME280;10167;42.852;23.042;2022-07-25T01:12:05;94903.78;;;22.92;100.00
20013;BME280;10167;42.852;23.042;2022-07-25T01:14:37;94910.44;;;22.86;100.00
20013;BME280;10167;42.852;23.042;2022-07-25T01:17:05;94904.56;;;22.84;100.00
20013;BME280;10167;42.852;23.042;2022-07-25T01:19:32;94908.91;;;23.02;100.00
20013;BME280;10167;42.852;23.042;2022-07-25T01:27:03;94910.13;;;22.78;100.00
20013;BME280;10167;42.852;23.042;2022-07-25T01:29:31;94911.00;;;22.74;100.00
20013;BME280;10167;42.852;23.042;2022-07-25T01:31:58;94913.16;;;22.86;100.00
20013;BME280;10167;42.852;23.042;2022-07-25T01:34:26;94907.50;;;22.73;100.00
20013;BME280;10167;42.852;23.042;2022-07-25T01:36:53;94908.06;;;22.93;100.00
20013;BME280;10167;42.852;23.042;2022-07-25T01:39:21;94904.06;;;22.81;100.00
20013;BME280;10167;42.852;23.042;2022-07-25T01:41:48;94914.19;;;22.67;100.00
20013;BME280;10167;42.852;23.042;2022-07-25T01:49:20;94907.38;;;22.39;100.00
20013;BME280;10167;42.852;23.042;2022-07-25T01:51:47;94912.25;;;22.28;100.00
20013;BME280;10167;42.852;23.042;2022-07-25T01:54:14;94922.19;;;22.19;100.00
20013;BME280;10167;42.852;23.042;2022-07-25T01:56:43;94925.50;;;22.16;100.00
20013;BME280;10167;42.852;23.042;2022-07-25T01:59:13;94926.19;;;22.22;100.00
20013;BME280;10167;42.852;23.042;2022-07-25T02:01:41;94925.69;;;22.20;100.00
20013;BME280;10167;42.852;23.042;2022-07-25T02:04:09;94922.44;;;22.09;100.00
20013;BME280;10167;42.852;23.042;2022-07-25T02:11:32;94924.66;;;22.07;100.00
20013;BME280;10167;42.852;23.042;2022-07-25T02:13:59;94923.09;;;22.15;100.00
20013;BME280;10167;42.852;23.042;2022-07-25T02:16:27;94918.31;;;22.34;100.00
20013;BME280;10167;42.852;23.042;2022-07-25T02:18:55;94931.03;;;22.42;100.00
20013;BME280;10167;42.852;23.042;2022-07-25T02:21:23;94919.69;;;22.23;100.00
20013;BME280;10167;42.852;23.042;2022-07-25T02:23:52;94923.84;;;22.06;100.00
20013;BME280;10167;42.852;23.042;2022-07-25T02:26:19;94930.69;;;21.90;100.00
20013;BME280;10167;42.852;23.042;2022-07-25T02:33:51;94929.72;;;21.64;100.00
20013;BME280;10167;42.852;23.042;2022-07-25T02:36:19;94930.91;;;21.58;100.00
20013;BME280;10167;42.852;23.042;2022-07-25T02:38:46;94931.13;;;21.61;100.00
20013;BME280;10167;42.852;23.042;2022-07-25T02:41:14;94923.47;;;21.55;100.00
20013;BME280;10167;42.852;23.042;2022-07-25T02:43:42;94921.31;;;21.43;100.00
20013;BME280;10167;42.852;23.042;2022-07-25T02:46:09;94928.16;;;21.49;100.00
20013;BME280;10167;42.852;23.042;2022-07-25T02:48:37;94930.28;;;21.38;100.00
20013;BME280;10167;42.852;23.042;2022-07-25T02:56:08;94931.81;;;21.17;100.00
20013;BME280;10167;42.852;23.042;2022-07-25T02:58:36;94940.59;;;21.09;100.00
20013;BME280;10167;42.852;23.042;2022-07-25T03:01:05;94934.63;;;20.98;100.00
20013;BME280;10167;42.852;23.042;2022-07-25T03:03:33;94938.50;;;20.92;100.00
20013;BME280;10167;42.852;23.042;2022-07-25T03:06:00;94946.50;;;20.84;100.00
20013;BME280;10167;42.852;23.042;2022-07-25T03:08:28;94944.50;;;20.76;100.00
20013;BME280;10167;42.852;23.042;2022-07-25T03:10:56;94940.31;;;20.70;100.00
20013;BME280;10167;42.852;23.042;2022-07-25T03:18:23;94949.16;;;20.56;100.00
20013;BME280;10167;42.852;23.042;2022-07-25T03:20:50;94953.75;;;20.70;100.00
20013;BME280;10167;42.852;23.042;2022-07-25T03:23:18;94943.41;;;20.63;100.00
20013;BME280;10167;42.852;23.042;2022-07-25T03:25:45;94948.38;;;20.70;100.00
20013;BME280;10167;42.852;23.042;2022-07-25T03:28:13;94947.28;;;20.71;100.00
20013;BME280;10167;42.852;23.042;2022-07-25T03:30:40;94942.50;;;20.81;100.00
20013;BME280;10167;42.852;23.042;2022-07-25T03:33:08;94936.13;;;20.91;100.00
20013;BME280;10167;42.852;23.042;2022-07-25T03:40:06;94940.31;;;20.97;100.00
20013;BME280;10167;42.852;23.042;2022-07-25T03:42:33;94938.22;;;20.94;100.00
20013;BME280;10167;42.852;23.042;2022-07-25T03:45:02;94933.34;;;20.96;100.00
20013;BME280;10167;42.852;23.042;2022-07-25T03:47:30;94937.69;;;21.06;100.00
20013;BME280;10167;42.852;23.042;2022-07-25T03:49:57;94933.94;;;20.93;100.00
20013;BME280;10167;42.852;23.042;2022-07-25T03:52:25;94935.59;;;20.89;100.00
20013;BME280;10167;42.852;23.042;2022-07-25T03:54:52;94933.84;;;20.98;100.00
20013;BME280;10167;42.852;23.042;2022-07-25T03:57:21;94938.38;;;21.11;100.00
20013;BME280;10167;42.852;23.042;2022-07-25T04:04:53;94947.47;;;21.01;100.00
20013;BME280;10167;42.852;23.042;2022-07-25T04:07:20;94955.75;;;21.05;100.00
20013;BME280;10167;42.852;23.042;2022-07-25T04:09:48;94954.75;;;21.01;100.00
20013;BME280;10167;42.852;23.042;2022-07-25T04:12:15;94948.06;;;21.12;100.00
20013;BME280;10167;42.852;23.042;2022-07-25T04:14:43;94948.56;;;21.14;100.00
20013;BME280;10167;42.852;23.042;2022-07-25T04:17:11;94946.88;;;21.32;100.00
20013;BME280;10167;42.852;23.042;2022-07-25T04:19:39;94944.44;;;21.44;100.00
20013;BME280;10167;42.852;23.042;2022-07-25T04:27:10;94948.94;;;21.71;100.00
20013;BME280;10167;42.852;23.042;2022-07-25T04:29:38;94950.69;;;21.89;100.00
20013;BME280;10167;42.852;23.042;2022-07-25T04:32:06;94951.28;;;22.00;100.00
20013;BME280;10167;42.852;23.042;2022-07-25T04:34:33;94946.88;;;22.13;100.00
20013;BME280;10167;42.852;23.042;2022-07-25T04:37:01;94954.31;;;22.29;100.00
20013;BME280;10167;42.852;23.042;2022-07-25T04:39:28;94951.66;;;22.38;100.00
20013;BME280;10167;42.852;23.042;2022-07-25T04:41:56;94950.88;;;22.46;100.00
20013;BME280;10167;42.852;23.042;2022-07-25T04:48:21;94958.34;;;22.40;100.00
20013;BME280;10167;42.852;23.042;2022-07-25T04:50:49;94955.94;;;22.39;100.00
20013;BME280;10167;42.852;23.042;2022-07-25T04:53:18;94945.34;;;22.42;100.00
20013;BME280;10167;42.852;23.042;2022-07-25T04:55:45;94944.25;;;22.52;100.00
20013;BME280;10167;42.852;23.042;2022-07-25T04:58:13;94946.19;;;22.60;100.00
20013;BME280;10167;42.852;23.042;2022-07-25T05:00:40;94948.81;;;22.74;100.00
20013;BME280;10167;42.852;23.042;2022-07-25T05:03:08;94960.63;;;22.87;100.00
20013;BME280;10167;42.852;23.042;2022-07-25T05:10:23;94958.66;;;23.18;100.00
20013;BME280;10167;42.852;23.042;2022-07-25T05:12:51;94956.78;;;23.27;100.00
20013;BME280;10167;42.852;23.042;2022-07-25T05:15:18;94954.06;;;23.27;100.00
20013;BME280;10167;42.852;23.042;2022-07-25T05:17:46;94965.97;;;23.26;100.00
20013;BME280;10167;42.852;23.042;2022-07-25T05:20:14;94958.06;;;23.30;100.00
20013;BME280;10167;42.852;23.042;2022-07-25T05:22:41;94959.97;;;23.38;100.00
20013;BME280;10167;42.852;23.042;2022-07-25T05:25:10;94963.38;;;23.61;100.00
20013;BME280;10167;42.852;23.042;2022-07-25T05:31:20;94967.84;;;23.82;100.00
20013;BME280;10167;42.852;23.042;2022-07-25T05:33:48;94957.50;;;24.10;100.00
20013;BME280;10167;42.852;23.042;2022-07-25T05:36:15;94951.13;;;24.32;100.00
20013;BME280;10167;42.852;23.042;2022-07-25T05:38:44;94956.13;;;24.68;100.00
20013;BME280;10167;42.852;23.042;2022-07-25T05:41:11;94957.16;;;24.84;100.00
20013;BME280;10167;42.852;23.042;2022-07-25T05:43:39;94958.81;;;25.15;100.00
20013;BME280;10167;42.852;23.042;2022-07-25T05:46:08;94961.56;;;25.36;100.00
20013;BME280;10167;42.852;23.042;2022-07-25T05:53:35;94959.44;;;25.91;100.00
20013;BME280;10167;42.852;23.042;2022-07-25T05:56:03;94945.25;;;25.86;100.00
20013;BME280;10167;42.852;23.042;2022-07-25T05:58:30;94957.44;;;26.00;100.00
20013;BME280;10167;42.852;23.042;2022-07-25T06:00:58;94950.28;;;26.17;100.00
20013;BME280;10167;42.852;23.042;2022-07-25T06:03:26;94955.88;;;26.32;100.00
20013;BME280;10167;42.852;23.042;2022-07-25T06:05:54;94950.34;;;26.29;100.00
20013;BME280;10167;42.852;23.042;2022-07-25T06:08:22;94951.09;;;26.50;100.00
20013;BME280;10167;42.852;23.042;2022-07-25T06:15:54;94944.75;;;26.58;100.00
20013;BME280;10167;42.852;23.042;2022-07-25T06:18:22;94942.84;;;26.59;100.00
20013;BME280;10167;42.852;23.042;2022-07-25T06:20:50;94946.13;;;26.64;100.00
20013;BME280;10167;42.852;23.042;2022-07-25T06:23:18;94947.38;;;26.67;100.00
20013;BME280;10167;42.852;23.042;2022-07-25T06:25:48;94949.78;;;26.81;100.00
20013;BME280;10167;42.852;23.042;2022-07-25T06:28:16;94943.34;;;26.85;100.00
20013;BME280;10167;42.852;23.042;2022-07-25T06:30:45;94944.53;;;27.08;100.00
20013;BME280;10167;42.852;23.042;2022-07-25T06:35:58;94939.75;;;27.30;100.00
20013;BME280;10167;42.852;23.042;2022-07-25T06:38:25;94936.22;;;27.41;100.00
20013;BME280;10167;42.852;23.042;2022-07-25T06:40:53;94943.13;;;27.63;100.00
20013;BME280;10167;42.852;23.042;2022-07-25T06:43:20;94938.22;;;27.69;100.00
20013;BME280;10167;42.852;23.042;2022-07-25T06:45:48;94931.31;;;27.71;100.00
20013;BME280;10167;42.852;23.042;2022-07-25T06:48:16;94931.31;;;27.71;100.00
20013;BME280;10167;42.852;23.042;2022-07-25T06:50:44;94931.16;;;27.80;100.00
20013;BME280;10167;42.852;23.042;2022-07-25T06:58:16;94935.50;;;28.21;100.00
20013;BME280;10167;42.852;23.042;2022-07-25T07:00:48;94926.97;;;28.10;98.74
20013;BME280;10167;42.852;23.042;2022-07-25T07:03:16;94920.84;;;28.13;97.61
20013;BME280;10167;42.852;23.042;2022-07-25T07:05:44;94922.84;;;28.29;100.00
20013;BME280;10167;42.852;23.042;2022-07-25T07:08:11;94919.78;;;28.30;98.58
20013;BME280;10167;42.852;23.042;2022-07-25T07:10:39;94925.84;;;28.39;100.00
20013;BME280;10167;42.852;23.042;2022-07-25T07:13:10;94919.00;;;28.30;95.66
20013;BME280;10167;42.852;23.042;2022-07-25T07:20:12;94916.13;;;28.54;94.92
20013;BME280;10167;42.852;23.042;2022-07-25T07:22:44;94909.09;;;28.69;98.21
20013;BME280;10167;42.852;23.042;2022-07-25T07:25:13;94916.53;;;28.84;93.99
20013;BME280;10167;42.852;23.042;2022-07-25T07:27:41;94921.78;;;28.93;93.20
20013;BME280;10167;42.852;23.042;2022-07-25T07:30:10;94922.13;;;29.22;92.88
20013;BME280;10167;42.852;23.042;2022-07-25T07:32:38;94919.19;;;29.31;89.00
20013;BME280;10167;42.852;23.042;2022-07-25T07:35:06;94916.75;;;29.42;89.41
20013;BME280;10167;42.852;23.042;2022-07-25T07:42:39;94907.88;;;29.64;86.47
20013;BME280;10167;42.852;23.042;2022-07-25T07:45:11;94908.31;;;29.85;82.92
20013;BME280;10167;42.852;23.042;2022-07-25T07:47:39;94910.75;;;29.71;86.66
20013;BME280;10167;42.852;23.042;2022-07-25T07:50:08;94906.75;;;29.84;82.63
20013;BME280;10167;42.852;23.042;2022-07-25T07:52:36;94910.13;;;29.78;81.86
20013;BME280;10167;42.852;23.042;2022-07-25T07:55:05;94909.47;;;29.84;81.01
20013;BME280;10167;42.852;23.042;2022-07-25T07:57:51;94908.31;;;30.01;84.03
20013;BME280;10167;42.852;23.042;2022-07-25T08:05:29;94905.34;;;30.10;82.07
20013;BME280;10167;42.852;23.042;2022-07-25T08:07:58;94908.06;;;30.10;77.31
20013;BME280;10167;42.852;23.042;2022-07-25T08:10:28;94913.09;;;30.08;80.35
20013;BME280;10167;42.852;23.042;2022-07-25T08:12:56;94914.81;;;30.16;77.65
20013;BME280;10167;42.852;23.042;2022-07-25T08:15:24;94900.88;;;30.21;78.38
20013;BME280;10167;42.852;23.042;2022-07-25T08:17:51;94907.84;;;30.18;75.31
20013;BME280;10167;42.852;23.042;2022-07-25T08:20:20;94898.50;;;30.19;76.29
20013;BME280;10167;42.852;23.042;2022-07-25T08:25:43;94905.31;;;30.29;75.99
20013;BME280;10167;42.852;23.042;2022-07-25T08:28:11;94901.56;;;30.37;73.88
20013;BME280;10167;42.852;23.042;2022-07-25T08:30:40;94907.06;;;30.60;71.10
20013;BME280;10167;42.852;23.042;2022-07-25T08:33:10;94901.50;;;30.76;72.09
20013;BME280;10167;42.852;23.042;2022-07-25T08:35:39;94898.84;;;30.79;71.47
20013;BME280;10167;42.852;23.042;2022-07-25T08:38:07;94895.75;;;30.81;69.52
20013;BME280;10167;42.852;23.042;2022-07-25T08:40:37;94906.06;;;30.91;67.45
20013;BME280;10167;42.852;23.042;2022-07-25T08:48:07;94908.16;;;31.24;66.77
20013;BME280;10167;42.852;23.042;2022-07-25T08:50:35;94900.25;;;31.19;67.30
20013;BME280;10167;42.852;23.042;2022-07-25T08:53:05;94899.31;;;31.34;67.12
20013;BME280;10167;42.852;23.042;2022-07-25T08:55:52;94901.88;;;31.50;64.40
20013;BME280;10167;42.852;23.042;2022-07-25T08:58:20;94890.00;;;31.38;62.07
20013;BME280;10167;42.852;23.042;2022-07-25T09:00:47;94896.91;;;31.55;61.45
20013;BME280;10167;42.852;23.042;2022-07-25T09:03:16;94902.13;;;31.37;61.28
20013;BME280;10167;42.852;23.042;2022-07-25T09:08:22;94886.38;;;31.57;61.07
20013;BME280;10167;42.852;23.042;2022-07-25T09:10:51;94885.88;;;31.78;59.57
20013;BME280;10167;42.852;23.042;2022-07-25T09:13:20;94888.19;;;31.76;58.26
20013;BME280;10167;42.852;23.042;2022-07-25T09:15:50;94881.31;;;31.59;60.17
20013;BME280;10167;42.852;23.042;2022-07-25T09:18:21;94884.31;;;31.51;60.61
20013;BME280;10167;42.852;23.042;2022-07-25T09:20:51;94881.56;;;30.98;62.11
20013;BME280;10167;42.852;23.042;2022-07-25T09:23:28;94879.88;;;30.90;58.92
20013;BME280;10167;42.852;23.042;2022-07-25T09:31:00;94879.97;;;31.46;57.15
20013;BME280;10167;42.852;23.042;2022-07-25T09:33:28;94882.59;;;31.65;57.54
20013;BME280;10167;42.852;23.042;2022-07-25T09:35:55;94885.34;;;31.99;55.12
20013;BME280;10167;42.852;23.042;2022-07-25T09:38:23;94883.84;;;31.71;59.27
20013;BME280;10167;42.852;23.042;2022-07-25T09:40:55;94876.72;;;31.97;56.52
20013;BME280;10167;42.852;23.042;2022-07-25T09:43:34;94889.38;;;32.38;56.18
20013;BME280;10167;42.852;23.042;2022-07-25T09:46:04;94878.63;;;32.63;56.65
20013;BME280;10167;42.852;23.042;2022-07-25T09:53:36;94889.66;;;32.70;55.17
20013;BME280;10167;42.852;23.042;2022-07-25T09:56:03;94888.47;;;32.68;53.16
20013;BME280;10167;42.852;23.042;2022-07-25T09:58:31;94884.84;;;33.01;55.42
20013;BME280;10167;42.852;23.042;2022-07-25T10:01:01;94882.59;;;33.13;49.83
20013;BME280;10167;42.852;23.042;2022-07-25T10:03:43;94866.75;;;33.40;52.50
20013;BME280;10167;42.852;23.042;2022-07-25T10:06:18;94869.19;;;33.60;48.41
20013;BME280;10167;42.852;23.042;2022-07-25T10:08:48;94866.38;;;33.45;46.22
20013;BME280;10167;42.852;23.042;2022-07-25T10:16:19;94862.91;;;33.52;49.09
20013;BME280;10167;42.852;23.042;2022-07-25T10:18:49;94866.34;;;32.91;52.42
20013;BME280;10167;42.852;23.042;2022-07-25T10:21:18;94856.91;;;32.44;52.89
20013;BME280;10167;42.852;23.042;2022-07-25T10:24:02;94859.69;;;32.51;57.27
20013;BME280;10167;42.852;23.042;2022-07-25T10:26:32;94853.22;;;32.70;54.81
20013;BME280;10167;42.852;23.042;2022-07-25T10:29:07;94851.47;;;32.92;52.13
20013;BME280;10167;42.852;23.042;2022-07-25T10:31:37;94863.44;;;33.17;48.67
20013;BME280;10167;42.852;23.042;2022-07-25T10:39:07;94841.25;;;33.40;46.40
20013;BME280;10167;42.852;23.042;2022-07-25T10:41:38;94834.16;;;33.35;45.87
20013;BME280;10167;42.852;23.042;2022-07-25T10:44:12;94841.22;;;33.36;46.34
20013;BME280;10167;42.852;23.042;2022-07-25T10:46:40;94842.88;;;33.51;45.72
20013;BME280;10167;42.852;23.042;2022-07-25T10:49:17;94838.22;;;33.63;44.94
20013;BME280;10167;42.852;23.042;2022-07-25T10:51:53;94840.72;;;33.93;45.06
20013;BME280;10167;42.852;23.042;2022-07-25T10:54:22;94837.66;;;34.22;42.37
20013;BME280;10167;42.852;23.042;2022-07-25T11:01:53;94837.75;;;34.44;43.67
20013;BME280;10167;42.852;23.042;2022-07-25T11:04:21;94829.09;;;34.28;46.30
20013;BME280;10167;42.852;23.042;2022-07-25T11:06:49;94823.59;;;34.56;45.42
20013;BME280;10167;42.852;23.042;2022-07-25T11:09:18;94822.03;;;34.55;46.56
20013;BME280;10167;42.852;23.042;2022-07-25T11:11:54;94819.25;;;34.34;44.47
20013;BME280;10167;42.852;23.042;2022-07-25T11:14:24;94811.69;;;33.99;45.57
20013;BME280;10167;42.852;23.042;2022-07-25T11:16:54;94809.53;;;33.49;46.39
20013;BME280;10167;42.852;23.042;2022-07-25T11:23:34;94800.69;;;33.88;51.47
20013;BME280;10167;42.852;23.042;2022-07-25T11:26:06;94795.00;;;33.45;47.91
20013;BME280;10167;42.852;23.042;2022-07-25T11:28:42;94801.81;;;33.07;47.49
20013;BME280;10167;42.852;23.042;2022-07-25T11:31:10;94794.38;;;33.11;48.45
20013;BME280;10167;42.852;23.042;2022-07-25T11:33:41;94793.41;;;33.44;48.35
20013;BME280;10167;42.852;23.042;2022-07-25T11:36:09;94792.34;;;33.63;48.32
20013;BME280;10167;42.852;23.042;2022-07-25T11:38:39;94793.63;;;33.98;46.36
20013;BME280;10167;42.852;23.042;2022-07-25T11:46:02;94781.19;;;34.71;43.57
20013;BME280;10167;42.852;23.042;2022-07-25T11:48:34;94788.25;;;34.69;42.95
20013;BME280;10167;42.852;23.042;2022-07-25T11:51:11;94785.13;;;34.81;43.35
20013;BME280;10167;42.852;23.042;2022-07-25T11:53:47;94787.09;;;34.59;40.03
20013;BME280;10167;42.852;23.042;2022-07-25T11:56:18;94780.78;;;34.55;40.61
20013;BME280;10167;42.852;23.042;2022-07-25T11:59:06;94770.19;;;34.78;42.05
20013;BME280;10167;42.852;23.042;2022-07-25T12:01:36;94779.59;;;35.09;39.28
20013;BME280;10167;42.852;23.042;2022-07-25T12:09:14;94775.00;;;36.00;41.73
20013;BME280;10167;42.852;23.042;2022-07-25T12:11:46;94775.78;;;36.60;37.73
20013;BME280;10167;42.852;23.042;2022-07-25T12:14:14;94777.09;;;36.93;39.17
20013;BME280;10167;42.852;23.042;2022-07-25T12:16:42;94774.72;;;36.91;37.13
20013;BME280;10167;42.852;23.042;2022-07-25T12:19:18;94773.94;;;36.94;35.02
20013;BME280;10167;42.852;23.042;2022-07-25T12:21:46;94768.81;;;36.45;35.64
20013;BME280;10167;42.852;23.042;2022-07-25T12:24:15;94761.38;;;36.90;34.89
20013;BME280;10167;42.852;23.042;2022-07-25T12:31:41;94750.84;;;38.40;33.38
20013;BME280;10167;42.852;23.042;2022-07-25T12:34:09;94763.41;;;38.72;31.41
20013;BME280;10167;42.852;23.042;2022-07-25T12:36:36;94746.00;;;38.98;30.34
20013;BME280;10167;42.852;23.042;2022-07-25T12:39:09;94748.09;;;39.34;29.93
20013;BME280;10167;42.852;23.042;2022-07-25T12:41:37;94749.31;;;39.52;30.75
20013;BME280;10167;42.852;23.042;2022-07-25T12:44:05;94741.34;;;39.35;31.62
20013;BME280;10167;42.852;23.042;2022-07-25T12:46:33;94743.34;;;38.41;33.48
20013;BME280;10167;42.852;23.042;2022-07-25T12:54:01;94734.53;;;35.80;37.91
20013;BME280;10167;42.852;23.042;2022-07-25T12:56:28;94727.09;;;36.39;36.39
20013;BME280;10167;42.852;23.042;2022-07-25T12:58:56;94727.09;;;36.39;36.18
20013;BME280;10167;42.852;23.042;2022-07-25T13:01:23;94727.09;;;35.77;36.36
20013;BME280;10167;42.852;23.042;2022-07-25T13:03:51;94723.69;;;35.37;37.68
20013;BME280;10167;42.852;23.042;2022-07-25T13:06:19;94722.66;;;34.56;39.02
20013;BME280;10167;42.852;23.042;2022-07-25T13:08:47;94712.03;;;34.12;39.56
20013;BME280;10167;42.852;23.042;2022-07-25T13:16:19;94718.31;;;34.13;41.72
20013;BME280;10167;42.852;23.042;2022-07-25T13:18:46;94711.91;;;35.33;37.86
20013;BME280;10167;42.852;23.042;2022-07-25T13:21:14;94714.56;;;36.27;34.31
20013;BME280;10167;42.852;23.042;2022-07-25T13:23:41;94716.25;;;37.03;34.21
20013;BME280;10167;42.852;23.042;2022-07-25T13:26:09;94697.84;;;37.31;32.85
20013;BME280;10167;42.852;23.042;2022-07-25T13:28:37;94713.19;;;36.94;33.81
20013;BME280;10167;42.852;23.042;2022-07-25T13:31:05;94712.91;;;37.57;32.07
20013;BME280;10167;42.852;23.042;2022-07-25T13:38:15;94701.00;;;35.92;34.17
20013;BME280;10167;42.852;23.042;2022-07-25T13:40:42;94693.03;;;35.24;36.63
20013;BME280;10167;42.852;23.042;2022-07-25T13:43:11;94697.50;;;35.88;37.21
20013;BME280;10167;42.852;23.042;2022-07-25T13:45:40;94702.66;;;36.86;35.33
20013;BME280;10167;42.852;23.042;2022-07-25T13:48:08;94694.13;;;37.44;34.45
20013;BME280;10167;42.852;23.042;2022-07-25T13:50:57;94697.59;;;38.36;33.23
20013;BME280;10167;42.852;23.042;2022-07-25T13:53:25;94701.03;;;38.17;32.88
20013;BME280;10167;42.852;23.042;2022-07-25T14:01:00;94685.97;;;35.23;37.29
20013;BME280;10167;42.852;23.042;2022-07-25T14:03:28;94693.69;;;35.64;37.16
20013;BME280;10167;42.852;23.042;2022-07-25T14:05:56;94681.63;;;36.06;36.04
20013;BME280;10167;42.852;23.042;2022-07-25T14:08:23;94685.47;;;36.19;36.12
20013;BME280;10167;42.852;23.042;2022-07-25T14:10:52;94681.28;;;36.00;36.38
20013;BME280;10167;42.852;23.042;2022-07-25T14:13:19;94677.06;;;35.78;37.83
20013;BME280;10167;42.852;23.042;2022-07-25T14:15:47;94676.88;;;35.37;36.06
20013;BME280;10167;42.852;23.042;2022-07-25T14:23:18;94685.72;;;34.08;40.02
20013;BME280;10167;42.852;23.042;2022-07-25T14:25:46;94676.66;;;33.82;38.72
20013;BME280;10167;42.852;23.042;2022-07-25T14:28:13;94679.38;;;33.75;39.40
20013;BME280;10167;42.852;23.042;2022-07-25T14:30:41;94675.81;;;33.68;39.75
20013;BME280;10167;42.852;23.042;2022-07-25T14:33:08;94674.31;;;33.88;40.51
20013;BME280;10167;42.852;23.042;2022-07-25T14:35:36;94670.00;;;34.83;37.71
20013;BME280;10167;42.852;23.042;2022-07-25T14:38:05;94677.94;;;35.61;35.18
20013;BME280;10167;42.852;23.042;2022-07-25T14:45:36;94675.25;;;36.13;34.31
20013;BME280;10167;42.852;23.042;2022-07-25T14:48:04;94669.81;;;36.06;35.39
20013;BME280;10167;42.852;23.042;2022-07-25T14:50:32;94670.13;;;35.52;36.29
20013;BME280;10167;42.852;23.042;2022-07-25T14:53:00;94670.34;;;34.88;37.72
20013;BME280;10167;42.852;23.042;2022-07-25T14:55:27;94659.38;;;34.74;39.28
20013;BME280;10167;42.852;23.042;2022-07-25T14:57:55;94668.47;;;34.29;38.02
20013;BME280;10167;42.852;23.042;2022-07-25T15:00:23;94667.25;;;34.12;39.61
20013;BME280;10167;42.852;23.042;2022-07-25T15:07:59;94650.91;;;33.07;40.66
20013;BME280;10167;42.852;23.042;2022-07-25T15:10:27;94650.28;;;32.66;43.51
20013;BME280;10167;42.852;23.042;2022-07-25T15:12:55;94649.38;;;32.44;43.39
20013;BME280;10167;42.852;23.042;2022-07-25T15:15:43;94641.25;;;32.07;45.31
20013;BME280;10167;42.852;23.042;2022-07-25T15:18:11;94643.59;;;32.05;46.65
20013;BME280;10167;42.852;23.042;2022-07-25T15:20:40;94652.91;;;31.97;46.69
20013;BME280;10167;42.852;23.042;2022-07-25T15:23:08;94649.66;;;31.85;46.76
20013;BME280;10167;42.852;23.042;2022-07-25T15:30:17;94645.22;;;31.66;47.50
20013;BME280;10167;42.852;23.042;2022-07-25T15:32:45;94641.31;;;31.67;48.94
20013;BME280;10167;42.852;23.042;2022-07-25T15:35:13;94644.63;;;31.50;48.19
20013;BME280;10167;42.852;23.042;2022-07-25T15:37:40;94635.22;;;31.47;48.30
20013;BME280;10167;42.852;23.042;2022-07-25T15:40:09;94646.97;;;31.48;48.95
20013;BME280;10167;42.852;23.042;2022-07-25T15:42:38;94638.75;;;31.48;50.71
20013;BME280;10167;42.852;23.042;2022-07-25T15:45:06;94636.81;;;31.52;47.14
20013;BME280;10167;42.852;23.042;2022-07-25T15:52:50;94641.72;;;31.32;46.17
20013;BME280;10167;42.852;23.042;2022-07-25T15:55:17;94642.81;;;31.27;44.78
20013;BME280;10167;42.852;23.042;2022-07-25T15:57:45;94634.63;;;31.27;47.36
20013;BME280;10167;42.852;23.042;2022-07-25T16:00:13;94643.59;;;31.24;45.70
20013;BME280;10167;42.852;23.042;2022-07-25T16:02:41;94641.53;;;31.18;45.65
20013;BME280;10167;42.852;23.042;2022-07-25T16:05:10;94641.09;;;31.12;46.28
20013;BME280;10167;42.852;23.042;2022-07-25T16:07:37;94642.25;;;31.11;47.46
20013;BME280;10167;42.852;23.042;2022-07-25T16:15:09;94642.84;;;30.97;48.28
20013;BME280;10167;42.852;23.042;2022-07-25T16:17:37;94641.75;;;31.02;46.98
20013;BME280;10167;42.852;23.042;2022-07-25T16:20:06;94640.47;;;30.96;49.87